createdAt,value
2018-12-11T00:02:05.194Z,98332.47
2018-12-11T00:07:09.496Z,98314.80
2018-12-11T00:12:11.890Z,98313.48
2018-12-11T00:17:14.291Z,98313.18
2018-12-11T00:22:16.562Z,98319.54
2018-12-11T00:27:18.961Z,98324.59
2018-12-11T00:32:21.287Z,98313.19
2018-12-11T00:37:23.578Z,98319.39
2018-12-11T00:42:25.977Z,98307.95
2018-12-11T00:47:28.246Z,98299.77
2018-12-11T00:52:30.526Z,98316.94
2018-12-11T00:57:32.885Z,98311.05
2018-12-11T01:02:35.154Z,98307.61
2018-12-11T01:07:37.451Z,98310.84
2018-12-11T01:12:39.827Z,98309.25
2018-12-11T01:17:42.081Z,98311.88
2018-12-11T01:22:44.927Z,98353.20
2018-12-11T01:27:47.265Z,98308.75
2018-12-11T01:32:49.510Z,98310.23
2018-12-11T01:37:51.774Z,98311.23
2018-12-11T01:42:54.003Z,98316.30
2018-12-11T01:47:56.241Z,98300.13
2018-12-11T01:52:58.595Z,98304.05
2018-12-11T01:58:00.917Z,98310.72
2018-12-11T02:03:03.449Z,98333.11
2018-12-11T02:08:05.669Z,98314.81
2018-12-11T02:13:07.932Z,98307.95
2018-12-11T02:18:10.157Z,98311.23
2018-12-11T02:23:12.403Z,98326.76
2018-12-11T02:28:14.690Z,98333.95
2018-12-11T02:33:16.944Z,98322.84
2018-12-11T02:38:19.168Z,98311.38
2018-12-11T02:43:21.423Z,98310.24
2018-12-11T02:48:23.684Z,98318.27
2018-12-11T02:53:26.014Z,98307.80
2018-12-11T02:58:28.327Z,98303.53
2018-12-11T03:03:30.589Z,98332.83
2018-12-11T03:08:32.892Z,98312.55
2018-12-11T03:13:35.217Z,98299.13
2018-12-11T03:18:37.549Z,98332.48
2018-12-11T03:23:39.990Z,98323.98
2018-12-11T03:28:42.267Z,98322.84
2018-12-11T03:33:44.679Z,98319.74
2018-12-11T03:38:47.002Z,98329.86
2018-12-11T03:43:49.286Z,98330.04
2018-12-11T03:48:51.673Z,98361.27
2018-12-11T03:53:54.082Z,98335.09
2018-12-11T03:58:56.345Z,98331.17
2018-12-11T04:03:58.687Z,98350.14
2018-12-11T04:09:12.267Z,98342.47
2018-12-11T04:14:14.859Z,98340.02
2018-12-11T04:19:17.343Z,98352.45
2018-12-11T04:24:19.607Z,98352.27
2018-12-11T04:29:23.890Z,98357.33
2018-12-11T04:34:26.331Z,98357.67
2018-12-11T04:39:33.931Z,98367.63
2018-12-11T04:44:33.120Z,98363.55
2018-12-11T04:49:35.479Z,98377.77
2018-12-11T04:54:37.829Z,98382.52
2018-12-11T04:59:40.379Z,98378.59
2018-12-11T05:04:42.673Z,98382.81
2018-12-11T05:09:44.940Z,98376.43
2018-12-11T05:14:47.267Z,98379.53
2018-12-11T05:19:49.555Z,98376.08
2018-12-11T05:24:51.945Z,98376.08
2018-12-11T05:29:54.208Z,98358.94
2018-12-11T05:34:56.484Z,98389.15
2018-12-11T05:39:58.719Z,98368.23
2018-12-11T05:45:00.983Z,98377.63
2018-12-11T05:50:04.009Z,98389.71
2018-12-11T05:55:06.524Z,98383.96
2018-12-11T06:00:09.878Z,98393.63
2018-12-11T06:05:12.543Z,98382.63
2018-12-11T06:10:14.796Z,98391.30
2018-12-11T06:15:17.203Z,98392.30
2018-12-11T06:20:19.552Z,98414.20
2018-12-11T06:25:21.813Z,98421.09
2018-12-11T06:30:24.127Z,98411.60
2018-12-11T06:35:26.536Z,98406.38
2018-12-11T06:40:28.899Z,98438.09
2018-12-11T06:45:31.185Z,98424.69
2018-12-11T06:50:33.464Z,98438.41
2018-12-11T06:55:36.783Z,98425.48
2018-12-11T07:00:39.073Z,98435.47
2018-12-11T07:05:41.376Z,98430.08
2018-12-11T07:10:43.880Z,98452.48
2018-12-11T07:15:46.287Z,98440.22
2018-12-11T07:20:48.552Z,98454.13
2018-12-11T07:25:51.679Z,98434.51
2018-12-11T07:30:54.008Z,98436.30
2018-12-11T07:35:56.402Z,98433.85
2018-12-11T07:40:58.683Z,98447.94
2018-12-11T07:46:00.934Z,98452.66
2018-12-11T07:51:03.325Z,98444.34
2018-12-11T07:56:05.620Z,98454.15
2018-12-11T08:01:07.875Z,98444.34
2018-12-11T08:06:10.136Z,98464.78
2018-12-11T08:11:12.475Z,98477.22
2018-12-11T08:16:17.743Z,98455.14
2018-12-11T08:21:20.231Z,98465.27
2018-12-11T08:26:22.970Z,98464.97
2018-12-11T08:31:26.467Z,98509.29
2018-12-11T08:36:28.787Z,98468.06
2018-12-11T08:41:31.096Z,98468.73
2018-12-11T08:46:33.403Z,98482.30
2018-12-11T08:51:35.724Z,98478.36
2018-12-11T08:56:38.114Z,98480.83
2018-12-11T09:01:40.599Z,98478.88
2018-12-11T09:06:42.870Z,98488.55
2018-12-11T09:11:45.183Z,98492.78
2018-12-11T09:16:47.439Z,98486.08
2018-12-11T09:21:49.705Z,98501.65
2018-12-11T09:26:51.968Z,98506.55
2018-12-11T09:31:54.208Z,98490.52
2018-12-11T09:36:56.527Z,98520.94
2018-12-11T09:41:58.847Z,98498.39
2018-12-11T09:47:01.132Z,98501.97
2018-12-11T09:52:10.347Z,98501.30
2018-12-11T09:57:12.644Z,98497.55
2018-12-11T10:02:15.039Z,98491.49
2018-12-11T10:07:17.383Z,98507.86
2018-12-11T10:12:19.707Z,98517.19
2018-12-11T10:17:22.080Z,98494.46
2018-12-11T10:22:24.356Z,98506.55
2018-12-11T10:27:33.587Z,98494.95
2018-12-11T10:32:35.859Z,98500.02
2018-12-11T10:37:38.127Z,98488.72
2018-12-11T10:42:40.440Z,98478.77
2018-12-11T10:47:42.903Z,98479.08
2018-12-11T10:52:45.174Z,98490.55
2018-12-11T10:57:47.441Z,98486.77
2018-12-11T11:02:55.347Z,98489.24
2018-12-11T11:07:58.887Z,98510.85
2018-12-11T11:13:01.215Z,98500.20
2018-12-11T11:18:03.588Z,98508.38
2018-12-11T11:23:06.088Z,98511.64
2018-12-11T11:28:08.356Z,98516.41
2018-12-11T11:33:10.620Z,98512.47
2018-12-11T11:38:12.865Z,98521.64
2018-12-11T11:43:15.155Z,98515.44
2018-12-11T11:48:17.423Z,98518.53
2018-12-11T11:53:19.659Z,98517.05
2018-12-11T11:58:21.892Z,98523.59
2018-12-11T12:03:24.258Z,98523.28
2018-12-11T12:08:26.899Z,98524.73
2018-12-11T12:13:31.246Z,98532.77
2018-12-11T12:18:33.485Z,98537.34
2018-12-11T12:23:35.754Z,98534.41
2018-12-11T12:28:37.995Z,98536.69
2018-12-11T12:33:40.267Z,98535.07
2018-12-11T12:38:42.564Z,98539.65
2018-12-11T12:43:44.857Z,98539.65
2018-12-11T12:48:47.108Z,98531.80
2018-12-11T12:53:49.385Z,98528.36
2018-12-11T12:58:51.758Z,98542.42
2018-12-11T13:03:54.340Z,98545.21
2018-12-11T13:08:57.088Z,98544.25
2018-12-11T13:13:59.555Z,98544.56
2018-12-11T13:19:02.052Z,98548.17
2018-12-11T13:24:04.315Z,98549.97
2018-12-11T13:29:07.619Z,98552.76
2018-12-11T13:34:09.968Z,98550.79
2018-12-11T13:39:12.363Z,98553.06
2018-12-11T13:44:14.976Z,98557.82
2018-12-11T13:49:17.282Z,98563.54
2018-12-11T13:54:19.563Z,98558.64
2018-12-11T13:59:21.893Z,98581.03
2018-12-11T14:04:24.189Z,98569.09
2018-12-11T14:09:35.236Z,98566.80
2018-12-11T14:14:37.571Z,98570.72
2018-12-11T14:19:39.968Z,98579.57
2018-12-11T14:24:42.214Z,98578.10
2018-12-11T14:29:44.468Z,98573.34
2018-12-11T14:34:46.795Z,98585.14
2018-12-11T14:39:49.107Z,98584.30
2018-12-11T14:44:51.347Z,98582.69
2018-12-11T14:49:53.984Z,98590.06
2018-12-11T14:54:56.271Z,98597.42
2018-12-11T14:59:59.655Z,98598.41
2018-12-11T15:05:02.277Z,98586.27
2018-12-11T15:10:07.175Z,98594.30
2018-12-11T15:15:09.955Z,98601.84
2018-12-11T15:20:12.319Z,98596.61
2018-12-11T15:25:14.594Z,98594.79
2018-12-11T15:30:17.078Z,98600.85
2018-12-11T15:35:19.326Z,98601.02
2018-12-11T15:40:21.600Z,98609.84
2018-12-11T15:45:23.863Z,98604.48
2018-12-11T15:50:26.227Z,98603.64
2018-12-11T15:55:28.506Z,98606.73
2018-12-11T16:00:30.797Z,98608.05
2018-12-11T16:05:33.062Z,98606.08
2018-12-11T16:10:35.312Z,98611.97
2018-12-11T16:15:37.588Z,98611.31
2018-12-11T16:20:39.880Z,98612.78
2018-12-11T16:25:42.110Z,98627.50
2018-12-11T16:30:44.673Z,98626.36
2018-12-11T16:35:47.930Z,98627.01
2018-12-11T16:40:51.935Z,98641.09
2018-12-11T16:45:54.178Z,98631.43
2018-12-11T16:50:56.515Z,98644.02
2018-12-11T16:55:58.744Z,98640.09
2018-12-11T17:01:00.990Z,98643.38
2018-12-11T17:06:03.283Z,98646.99
2018-12-11T17:11:05.611Z,98651.73
2018-12-11T17:16:14.775Z,98650.77
2018-12-11T17:21:17.099Z,98659.12
2018-12-11T17:26:19.635Z,98664.80
2018-12-11T17:31:21.889Z,98667.97
2018-12-11T17:36:24.384Z,98681.53
2018-12-11T17:41:26.720Z,98672.20
2018-12-11T17:46:29.028Z,98668.73
2018-12-11T17:51:31.379Z,98677.25
2018-12-11T17:56:34.015Z,98682.84
2018-12-11T18:01:37.989Z,98677.42
2018-12-11T18:06:40.348Z,98686.75
2018-12-11T18:11:42.594Z,98690.82
2018-12-11T18:16:45.309Z,98684.11
2018-12-11T18:21:47.814Z,98679.05
2018-12-11T18:26:50.563Z,98690.00
2018-12-11T18:31:53.466Z,98691.47
2018-12-11T18:36:57.146Z,98694.41
2018-12-11T18:41:59.420Z,98689.50
2018-12-11T18:47:01.705Z,98700.28
2018-12-11T18:52:04.095Z,98708.33
2018-12-11T18:57:06.503Z,98706.63
2018-12-11T19:02:08.985Z,98709.59
2018-12-11T19:07:11.248Z,98708.08
2018-12-11T19:12:15.562Z,98723.80
2018-12-11T19:17:17.835Z,98727.25
2018-12-11T19:22:20.123Z,98730.34
2018-12-11T19:27:22.652Z,98721.67
2018-12-11T19:32:25.166Z,98729.69
2018-12-11T19:37:27.415Z,98730.01
2018-12-11T19:42:29.747Z,98728.99
2018-12-11T19:47:32.154Z,98739.44
2018-12-11T19:52:39.857Z,98735.03
2018-12-11T19:57:42.112Z,98746.97
2018-12-11T20:02:44.408Z,98739.25
2018-12-11T20:07:51.282Z,98735.97
2018-12-11T20:12:53.871Z,98739.58
2018-12-11T20:17:56.494Z,98733.01
2018-12-11T20:22:58.752Z,98727.94
2018-12-11T20:28:01.031Z,98742.14
2018-12-11T20:33:03.423Z,98734.74
2018-12-11T20:38:05.686Z,98741.47
2018-12-11T20:43:08.047Z,98745.69
2018-12-11T20:48:10.401Z,98757.48
2018-12-11T20:53:12.647Z,98758.96
2018-12-11T20:58:14.915Z,98761.23
2018-12-11T21:03:17.277Z,98762.16
2018-12-11T21:08:21.926Z,98765.41
2018-12-11T21:13:24.225Z,98764.27
2018-12-11T21:18:26.839Z,98761.87
2018-12-11T21:23:29.174Z,98759.31
2018-12-11T21:28:31.529Z,98763.20
2018-12-11T21:33:34.538Z,98755.84
2018-12-11T21:38:36.836Z,98764.00
2018-12-11T21:43:39.149Z,98766.78
2018-12-11T21:48:41.426Z,98775.74
2018-12-11T21:53:43.687Z,98779.13
2018-12-11T21:58:46.255Z,98777.50
2018-12-11T22:03:49.381Z,98781.71
2018-12-11T22:08:51.751Z,98779.41
2018-12-11T22:13:54.055Z,98778.20
2018-12-11T22:18:56.332Z,98772.45
2018-12-11T22:23:58.685Z,98780.30
2018-12-11T22:29:00.932Z,98778.92
2018-12-11T22:34:03.269Z,98784.62
2018-12-11T22:39:07.364Z,98784.75
2018-12-11T22:44:09.635Z,98792.27
2018-12-11T22:49:11.925Z,98786.85
2018-12-11T22:54:14.527Z,98790.93
2018-12-11T22:59:16.824Z,98807.92
2018-12-11T23:04:19.175Z,98804.95
2018-12-11T23:09:21.428Z,98810.23
2018-12-11T23:14:23.731Z,98813.23
2018-12-11T23:19:26.093Z,98812.52
2018-12-11T23:24:28.342Z,98817.75
2018-12-11T23:29:30.603Z,98821.40
2018-12-11T23:34:32.875Z,98822.03
2018-12-11T23:39:36.513Z,98812.56
2018-12-11T23:44:38.847Z,98818.38
2018-12-11T23:49:41.114Z,98816.72
2018-12-11T23:54:43.479Z,98819.65
2018-12-11T23:59:45.763Z,98825.59
